createdAt,value
2022-11-29T00:01:13.264Z,6.20
2022-11-29T00:03:40.243Z,6.28
2022-11-29T00:06:09.562Z,6.19
2022-11-29T00:08:36.760Z,6.19
2022-11-29T00:11:06.206Z,6.14
2022-11-29T00:13:33.188Z,6.20
2022-11-29T00:16:05.065Z,6.22
2022-11-29T00:18:32.394Z,6.28
2022-11-29T00:20:59.090Z,6.32
2022-11-29T00:23:26.542Z,6.26
2022-11-29T00:25:53.371Z,6.29
2022-11-29T00:28:20.147Z,6.41
2022-11-29T00:30:47.341Z,6.29
2022-11-29T00:33:14.080Z,6.31
2022-11-29T00:35:40.653Z,6.31
2022-11-29T00:38:07.316Z,6.26
2022-11-29T00:40:33.871Z,6.18
2022-11-29T00:43:00.626Z,6.25
2022-11-29T00:48:08.013Z,6.30
2022-11-29T00:50:34.783Z,6.42
2022-11-29T00:53:01.487Z,6.31
2022-11-29T00:55:28.088Z,6.29
2022-11-29T00:57:54.737Z,6.34
2022-11-29T01:00:21.450Z,6.28
2022-11-29T01:02:48.241Z,6.37
2022-11-29T01:05:15.021Z,6.39
2022-11-29T01:07:41.634Z,6.39
2022-11-29T01:10:08.883Z,6.32
2022-11-29T01:12:39.908Z,6.34
2022-11-29T01:15:11.489Z,6.37
2022-11-29T01:17:39.774Z,6.35
2022-11-29T01:20:10.267Z,6.34
2022-11-29T01:22:38.570Z,6.44
2022-11-29T01:25:07.441Z,6.51
2022-11-29T01:27:34.637Z,6.46
2022-11-29T01:30:01.206Z,6.41
2022-11-29T01:32:27.860Z,6.39
2022-11-29T01:34:54.499Z,6.35
2022-11-29T01:37:21.104Z,6.38
2022-11-29T01:39:50.792Z,6.39
2022-11-29T01:42:17.504Z,6.30
2022-11-29T01:44:50.197Z,6.20
2022-11-29T01:47:18.663Z,6.16
2022-11-29T01:49:48.157Z,6.28
2022-11-29T01:52:21.049Z,6.22
2022-11-29T01:54:56.120Z,6.22
2022-11-29T01:57:23.243Z,6.27
2022-11-29T01:59:54.140Z,6.27
2022-11-29T02:02:28.253Z,6.36
2022-11-29T02:04:58.406Z,6.33
2022-11-29T02:07:25.168Z,6.30
2022-11-29T02:09:51.866Z,6.21
2022-11-29T02:12:39.625Z,6.25
2022-11-29T02:15:18.422Z,6.20
2022-11-29T02:18:14.736Z,6.13
2022-11-29T02:20:57.320Z,5.94
2022-11-29T02:23:48.498Z,5.87
2022-11-29T02:26:21.753Z,5.80
2022-11-29T02:29:20.934Z,5.77
2022-11-29T02:32:09.384Z,5.80
2022-11-29T02:34:52.125Z,5.87
2022-11-29T02:37:22.634Z,5.96
2022-11-29T02:40:07.038Z,5.99
2022-11-29T02:42:54.094Z,5.96
2022-11-29T02:45:35.873Z,6.02
2022-11-29T02:48:21.230Z,6.03
2022-11-29T02:50:59.021Z,6.01
2022-11-29T02:53:49.974Z,5.94
2022-11-29T02:56:35.170Z,6.00
2022-11-29T02:59:20.090Z,5.97
2022-11-29T03:02:02.135Z,5.92
2022-11-29T03:04:37.868Z,5.92
2022-11-29T03:07:34.082Z,6.02
2022-11-29T03:10:31.766Z,6.10
2022-11-29T03:12:59.859Z,6.11
2022-11-29T03:15:38.761Z,6.15
2022-11-29T03:18:08.406Z,6.10
2022-11-29T03:20:57.864Z,5.99
2022-11-29T03:23:33.340Z,6.10
2022-11-29T03:26:32.073Z,6.06
2022-11-29T03:29:11.660Z,6.03
2022-11-29T03:31:49.997Z,6.05
2022-11-29T03:34:26.191Z,6.10
2022-11-29T03:37:04.137Z,6.10
2022-11-29T03:39:41.563Z,6.10
2022-11-29T03:42:14.185Z,6.09
2022-11-29T03:45:03.041Z,6.13
2022-11-29T03:47:37.962Z,6.15
2022-11-29T03:50:40.464Z,6.24
2022-11-29T03:53:33.797Z,6.25
2022-11-29T03:56:03.917Z,6.32
2022-11-29T03:59:00.729Z,6.38
2022-11-29T04:01:36.474Z,6.39
2022-11-29T04:04:15.954Z,6.23
2022-11-29T04:07:00.930Z,6.29
2022-11-29T04:09:36.605Z,6.30
2022-11-29T04:14:01.561Z,6.24
2022-11-29T04:16:25.548Z,6.24
2022-11-29T04:19:29.459Z,6.22
2022-11-29T04:22:14.535Z,6.09
2022-11-29T04:25:15.229Z,6.03
2022-11-29T04:27:49.372Z,6.07
2022-11-29T04:30:21.630Z,6.05
2022-11-29T04:33:25.719Z,6.07
2022-11-29T04:36:33.552Z,6.03
2022-11-29T04:39:13.530Z,5.94
2022-11-29T04:42:05.032Z,5.85
2022-11-29T04:44:55.676Z,5.80
2022-11-29T04:47:49.112Z,5.67
2022-11-29T04:50:38.914Z,5.66
2022-11-29T04:53:27.105Z,5.62
2022-11-29T04:56:23.709Z,5.55
2022-11-29T04:59:26.264Z,5.49
2022-11-29T05:02:05.006Z,5.40
2022-11-29T05:04:40.604Z,5.35
2022-11-29T05:07:52.231Z,5.15
2022-11-29T05:10:39.515Z,5.11
2022-11-29T05:13:30.934Z,5.14
2022-11-29T05:16:19.967Z,5.06
2022-11-29T05:19:17.432Z,5.07
2022-11-29T05:22:39.216Z,5.00
2022-11-29T05:25:30.485Z,4.98
2022-11-29T05:28:10.367Z,4.90
2022-11-29T05:30:55.919Z,4.97
2022-11-29T05:33:55.359Z,4.89
2022-11-29T05:36:42.241Z,4.92
2022-11-29T05:39:50.027Z,4.83
2022-11-29T05:42:46.774Z,4.80
2022-11-29T05:45:37.052Z,4.86
2022-11-29T05:48:21.901Z,4.78
2022-11-29T05:51:23.557Z,4.75
2022-11-29T05:54:13.338Z,4.73
2022-11-29T05:56:58.214Z,4.66
2022-11-29T05:59:28.677Z,4.59
2022-11-29T06:02:20.391Z,4.59
2022-11-29T06:05:13.108Z,4.58
2022-11-29T06:14:02.942Z,4.58
2022-11-29T06:17:25.957Z,4.56
2022-11-29T06:20:05.042Z,4.48
2022-11-29T06:22:44.130Z,4.56
2022-11-29T06:25:39.288Z,4.57
2022-11-29T06:28:27.773Z,4.62
2022-11-29T06:31:00.985Z,4.66
2022-11-29T06:33:56.349Z,4.57
2022-11-29T06:36:25.640Z,4.69
2022-11-29T06:38:52.366Z,4.67
2022-11-29T06:41:22.204Z,4.65
2022-11-29T06:43:49.712Z,4.80
2022-11-29T06:46:31.956Z,4.96
2022-11-29T06:49:17.225Z,5.04
2022-11-29T06:52:02.916Z,5.14
2022-11-29T06:55:06.030Z,5.16
2022-11-29T06:57:51.022Z,5.37
2022-11-29T07:00:24.071Z,5.43
2022-11-29T07:03:15.526Z,5.44
2022-11-29T07:05:42.658Z,5.47
2022-11-29T07:08:14.990Z,5.56
2022-11-29T07:10:43.021Z,5.66
2022-11-29T07:13:13.926Z,5.67
2022-11-29T07:16:12.575Z,5.75
2022-11-29T07:18:47.703Z,5.77
2022-11-29T07:21:33.301Z,5.77
2022-11-29T07:24:23.634Z,5.70
2022-11-29T07:27:01.277Z,5.64
2022-11-29T07:29:53.419Z,5.61
2022-11-29T07:32:34.402Z,5.65
2022-11-29T07:35:24.200Z,5.57
2022-11-29T07:37:57.937Z,5.56
2022-11-29T07:40:37.931Z,5.60
2022-11-29T07:43:14.423Z,5.59
2022-11-29T07:45:41.200Z,5.57
2022-11-29T07:48:10.989Z,5.64
2022-11-29T07:50:41.281Z,5.64
2022-11-29T07:53:20.515Z,5.71
2022-11-29T07:55:48.392Z,5.78
2022-11-29T07:58:17.420Z,5.81
2022-11-29T08:00:46.859Z,5.90
2022-11-29T08:03:13.672Z,5.92
2022-11-29T08:05:40.791Z,5.95
2022-11-29T08:08:07.727Z,6.02
2022-11-29T08:10:35.688Z,6.07
2022-11-29T08:13:02.774Z,6.01
2022-11-29T08:15:29.715Z,5.97
2022-11-29T08:17:56.384Z,6.07
2022-11-29T08:20:23.160Z,6.05
2022-11-29T08:22:59.032Z,6.09
2022-11-29T08:25:26.969Z,6.05
2022-11-29T08:27:54.692Z,6.10
2022-11-29T08:30:22.466Z,6.16
2022-11-29T08:32:52.034Z,6.19
2022-11-29T08:35:22.583Z,6.19
2022-11-29T08:37:49.720Z,6.19
2022-11-29T08:40:17.447Z,6.21
2022-11-29T08:42:44.178Z,6.17
2022-11-29T08:45:11.915Z,6.20
2022-11-29T08:47:39.089Z,6.21
2022-11-29T08:50:10.123Z,6.26
2022-11-29T08:52:59.361Z,6.33
2022-11-29T08:55:30.681Z,6.40
2022-11-29T08:58:06.783Z,6.34
2022-11-29T09:00:34.367Z,6.30
2022-11-29T09:03:25.014Z,6.34
2022-11-29T09:05:52.512Z,6.31
2022-11-29T09:08:19.338Z,6.37
2022-11-29T09:10:47.408Z,6.47
2022-11-29T09:13:14.160Z,6.48
2022-11-29T09:15:43.322Z,6.52
2022-11-29T09:18:09.943Z,6.49
2022-11-29T09:20:36.832Z,6.51
2022-11-29T09:23:03.975Z,6.45
2022-11-29T09:25:30.548Z,6.45
2022-11-29T09:28:02.833Z,6.42
2022-11-29T09:30:31.587Z,6.41
2022-11-29T09:33:05.069Z,6.40
2022-11-29T09:35:31.872Z,6.48
2022-11-29T09:37:58.554Z,6.44
2022-11-29T09:40:33.893Z,6.43
2022-11-29T09:43:04.031Z,6.56
2022-11-29T09:45:36.525Z,6.57
2022-11-29T09:48:53.113Z,6.56
2022-11-29T09:52:07.440Z,6.57
2022-11-29T09:54:33.978Z,6.55
2022-11-29T09:57:10.330Z,6.56
2022-11-29T09:59:43.610Z,6.64
2022-11-29T10:02:42.199Z,6.68
2022-11-29T10:05:17.054Z,6.63
2022-11-29T10:07:56.109Z,6.64
2022-11-29T10:10:31.295Z,6.65
2022-11-29T10:13:23.501Z,6.74
2022-11-29T10:15:56.282Z,6.69
2022-11-29T10:18:28.872Z,6.70
2022-11-29T10:20:59.855Z,6.67
2022-11-29T10:23:33.250Z,6.67
2022-11-29T10:25:59.938Z,6.70
2022-11-29T10:28:31.575Z,6.74
2022-11-29T10:31:08.480Z,6.73
2022-11-29T10:33:41.878Z,6.81
2022-11-29T10:36:40.739Z,6.92
2022-11-29T10:39:18.838Z,6.92
2022-11-29T10:41:46.285Z,6.89
2022-11-29T10:44:14.977Z,6.90
2022-11-29T10:46:41.666Z,6.91
2022-11-29T10:49:14.943Z,6.80
2022-11-29T10:51:41.752Z,6.86
2022-11-29T10:54:35.712Z,6.70
2022-11-29T10:57:02.635Z,6.74
2022-11-29T10:59:34.912Z,6.78
2022-11-29T11:02:01.988Z,6.80
2022-11-29T11:04:37.157Z,6.90
2022-11-29T11:07:06.968Z,6.97
2022-11-29T11:09:48.610Z,6.97
2022-11-29T11:12:15.360Z,6.93
2022-11-29T11:14:43.745Z,6.75
2022-11-29T11:17:26.442Z,6.79
2022-11-29T11:19:58.469Z,6.81
2022-11-29T11:22:32.573Z,6.76
2022-11-29T11:25:06.787Z,6.73
2022-11-29T11:27:37.217Z,6.78
2022-11-29T11:30:06.293Z,6.75
2022-11-29T11:32:33.152Z,6.81
2022-11-29T11:35:02.146Z,6.87
2022-11-29T11:37:35.803Z,6.73
2022-11-29T11:40:29.220Z,6.79
2022-11-29T11:43:01.976Z,6.82
2022-11-29T11:45:33.444Z,6.96
2022-11-29T11:48:12.736Z,6.93
2022-11-29T11:50:54.299Z,6.94
2022-11-29T11:53:27.717Z,6.88
2022-11-29T11:56:02.618Z,6.90
2022-11-29T11:58:32.413Z,6.91
2022-11-29T12:01:12.414Z,6.96
2022-11-29T12:03:54.835Z,6.93
2022-11-29T12:06:59.875Z,6.98
2022-11-29T12:09:34.056Z,7.09
2022-11-29T12:12:34.685Z,7.08
2022-11-29T12:15:06.205Z,7.05
2022-11-29T12:17:50.019Z,6.92
2022-11-29T12:20:54.181Z,7.01
2022-11-29T12:23:40.873Z,6.96
2022-11-29T12:29:19.942Z,6.98
2022-11-29T12:32:10.451Z,7.03
2022-11-29T12:34:37.082Z,6.94
2022-11-29T12:37:30.027Z,6.95
2022-11-29T12:40:18.016Z,6.97
2022-11-29T12:43:15.301Z,7.06
2022-11-29T12:46:22.822Z,7.11
2022-11-29T12:49:04.285Z,7.25
2022-11-29T12:51:57.843Z,7.41
2022-11-29T12:54:55.982Z,7.69
2022-11-29T12:57:48.384Z,7.81
2022-11-29T13:00:17.717Z,7.76
2022-11-29T13:03:14.842Z,8.32
2022-11-29T13:05:55.472Z,8.83
2022-11-29T13:08:52.819Z,9.04
2022-11-29T13:11:38.157Z,8.80
2022-11-29T13:17:30.598Z,9.16
2022-11-29T13:20:13.350Z,9.13
2022-11-29T13:22:50.881Z,8.93
2022-11-29T13:25:24.441Z,8.94
2022-11-29T13:28:11.544Z,9.03
2022-11-29T13:30:39.976Z,8.92
2022-11-29T13:33:24.816Z,8.73
2022-11-29T13:36:17.112Z,8.32
2022-11-29T13:39:07.789Z,8.05
2022-11-29T13:41:54.918Z,7.86
2022-11-29T13:44:27.273Z,7.68
2022-11-29T13:47:09.080Z,7.54
2022-11-29T13:50:04.017Z,7.44
2022-11-29T13:52:44.111Z,7.39
2022-11-29T13:55:11.347Z,7.35
2022-11-29T14:00:42.560Z,7.35
2022-11-29T14:03:21.052Z,7.34
2022-11-29T14:05:50.604Z,7.40
2022-11-29T14:08:23.965Z,7.39
2022-11-29T14:10:51.854Z,7.22
2022-11-29T14:13:18.801Z,7.18
2022-11-29T14:15:56.324Z,7.20
2022-11-29T14:18:40.532Z,7.26
2022-11-29T14:21:07.660Z,7.30
2022-11-29T14:23:41.674Z,7.34
2022-11-29T14:26:08.213Z,7.30
2022-11-29T14:28:34.768Z,7.21
2022-11-29T14:31:03.369Z,7.20
2022-11-29T14:33:39.862Z,7.22
2022-11-29T14:36:17.589Z,7.29
2022-11-29T14:39:05.847Z,7.15
2022-11-29T14:42:01.152Z,7.17
2022-11-29T14:44:30.655Z,7.17
2022-11-29T14:47:15.274Z,7.18
2022-11-29T14:49:45.399Z,7.17
2022-11-29T14:52:14.663Z,7.11
2022-11-29T14:55:04.194Z,7.08
2022-11-29T14:57:58.467Z,6.95
2022-11-29T15:00:39.634Z,6.95
2022-11-29T15:03:15.846Z,6.93
2022-11-29T15:05:46.222Z,6.92
2022-11-29T15:08:42.015Z,6.91
2022-11-29T15:11:16.264Z,6.85
2022-11-29T15:13:56.248Z,6.89
2022-11-29T15:16:53.185Z,6.82
2022-11-29T15:19:35.914Z,6.71
2022-11-29T15:22:28.673Z,6.59
2022-11-29T15:25:00.303Z,6.47
2022-11-29T15:27:27.192Z,6.34
2022-11-29T15:29:53.952Z,6.22
2022-11-29T15:32:27.312Z,6.10
2022-11-29T15:34:56.451Z,6.09
2022-11-29T15:37:44.612Z,6.11
2022-11-29T15:40:14.326Z,6.09
2022-11-29T15:42:44.060Z,6.07
2022-11-29T15:45:29.028Z,6.04
2022-11-29T15:48:09.398Z,5.96
2022-11-29T15:50:36.488Z,5.91
2022-11-29T15:53:07.079Z,5.78
2022-11-29T15:55:34.185Z,5.72
2022-11-29T15:58:08.555Z,5.72
2022-11-29T16:00:36.529Z,5.67
2022-11-29T16:03:05.855Z,5.62
2022-11-29T16:05:35.740Z,5.56
2022-11-29T16:08:14.982Z,5.50
2022-11-29T16:10:49.265Z,5.45
2022-11-29T16:13:31.753Z,5.39
2022-11-29T16:16:17.598Z,5.33
2022-11-29T16:18:46.256Z,5.27
2022-11-29T16:21:22.991Z,5.21
2022-11-29T16:23:49.788Z,5.14
2022-11-29T16:26:39.107Z,5.16
2022-11-29T16:29:15.565Z,5.17
2022-11-29T16:31:42.230Z,5.19
2022-11-29T16:34:17.734Z,5.18
2022-11-29T16:36:44.342Z,5.18
2022-11-29T16:39:22.821Z,5.12
2022-11-29T16:42:17.400Z,5.08
2022-11-29T16:44:49.102Z,5.00
2022-11-29T16:47:21.594Z,4.88
2022-11-29T16:50:16.413Z,4.89
2022-11-29T16:52:43.590Z,4.92
2022-11-29T16:55:10.304Z,5.01
2022-11-29T16:57:37.600Z,5.10
2022-11-29T17:00:30.366Z,5.15
2022-11-29T17:02:57.690Z,5.25
2022-11-29T17:05:24.374Z,5.33
2022-11-29T17:07:51.532Z,5.34
2022-11-29T17:10:22.735Z,5.37
2022-11-29T17:12:50.188Z,5.39
2022-11-29T17:15:17.460Z,5.43
2022-11-29T17:17:44.079Z,5.45
2022-11-29T17:20:12.798Z,5.42
2022-11-29T17:22:39.975Z,5.39
2022-11-29T17:25:07.189Z,5.53
2022-11-29T17:27:33.924Z,5.68
2022-11-29T17:30:00.606Z,5.65
2022-11-29T17:32:27.368Z,5.56
2022-11-29T17:34:54.257Z,5.61
2022-11-29T17:37:23.986Z,5.63
2022-11-29T17:39:50.695Z,5.57
2022-11-29T17:42:17.374Z,5.58
2022-11-29T17:44:43.986Z,5.72
2022-11-29T17:47:10.583Z,5.71
2022-11-29T17:49:37.163Z,5.65
2022-11-29T17:52:04.005Z,5.63
2022-11-29T17:54:33.033Z,5.70
2022-11-29T17:57:00.756Z,5.70
2022-11-29T17:59:27.467Z,5.74
2022-11-29T18:01:54.119Z,5.86
2022-11-29T18:04:21.380Z,5.96
2022-11-29T18:06:50.028Z,6.04
2022-11-29T18:09:18.618Z,6.07
2022-11-29T18:11:49.453Z,6.10
2022-11-29T18:14:20.175Z,6.12
2022-11-29T18:16:47.147Z,6.06
2022-11-29T18:19:19.990Z,6.10
2022-11-29T18:21:47.413Z,6.10
2022-11-29T18:24:13.996Z,6.08
2022-11-29T18:26:40.895Z,6.09
2022-11-29T18:29:08.620Z,6.10
2022-11-29T18:31:37.647Z,6.08
2022-11-29T18:34:13.022Z,6.10
2022-11-29T18:36:45.361Z,6.06
2022-11-29T18:39:19.015Z,6.06
2022-11-29T18:41:48.188Z,6.12
2022-11-29T18:44:16.684Z,6.13
2022-11-29T18:46:45.017Z,6.18
2022-11-29T18:49:15.535Z,6.13
2022-11-29T18:51:44.367Z,6.08
2022-11-29T18:54:11.423Z,6.17
2022-11-29T18:56:38.388Z,6.19
2022-11-29T18:59:08.557Z,6.23
2022-11-29T19:01:40.967Z,6.28
2022-11-29T19:04:18.972Z,6.35
2022-11-29T19:06:45.935Z,6.36
2022-11-29T19:09:15.659Z,6.34
2022-11-29T19:11:42.505Z,6.33
2022-11-29T19:14:11.764Z,6.34
2022-11-29T19:16:44.000Z,6.27
2022-11-29T19:19:11.692Z,6.33
2022-11-29T19:21:39.829Z,6.34
2022-11-29T19:24:13.424Z,6.43
2022-11-29T19:26:41.153Z,6.45
2022-11-29T19:29:07.713Z,6.44
2022-11-29T19:31:34.418Z,6.47
2022-11-29T19:34:01.091Z,6.45
2022-11-29T19:36:31.748Z,6.44
2022-11-29T19:39:01.451Z,6.45
2022-11-29T19:41:33.602Z,6.47
2022-11-29T19:44:03.113Z,6.54
2022-11-29T19:46:32.432Z,6.55
2022-11-29T19:49:00.088Z,6.53
2022-11-29T19:51:27.601Z,6.56
2022-11-29T19:53:56.315Z,6.55
2022-11-29T19:56:23.583Z,6.53
2022-11-29T19:58:51.329Z,6.43
2022-11-29T20:01:19.905Z,6.36
2022-11-29T20:03:46.696Z,6.20
2022-11-29T20:06:13.879Z,6.18
2022-11-29T20:08:41.688Z,6.26
2022-11-29T20:11:12.476Z,6.27
2022-11-29T20:13:41.203Z,6.32
2022-11-29T20:16:10.110Z,6.39
2022-11-29T20:18:39.332Z,6.47
2022-11-29T20:21:12.151Z,6.52
2022-11-29T20:23:39.860Z,6.48
2022-11-29T20:26:10.082Z,6.55
2022-11-29T20:28:36.761Z,6.54
2022-11-29T20:31:08.681Z,6.53
2022-11-29T20:33:35.746Z,6.52
2022-11-29T20:36:29.029Z,6.52
2022-11-29T20:39:07.184Z,6.55
2022-11-29T20:41:59.345Z,6.50
2022-11-29T20:44:53.656Z,6.51
2022-11-29T20:47:23.286Z,6.52
2022-11-29T20:49:50.914Z,6.47
2022-11-29T20:52:32.914Z,6.44
2022-11-29T20:54:59.580Z,6.44
2022-11-29T20:57:26.283Z,6.39
2022-11-29T20:59:52.920Z,6.36
2022-11-29T21:02:19.988Z,6.26
2022-11-29T21:04:46.872Z,6.31
2022-11-29T21:07:13.557Z,6.24
2022-11-29T21:09:48.091Z,6.21
2022-11-29T21:12:15.207Z,6.20
2022-11-29T21:14:42.895Z,6.16
2022-11-29T21:17:10.339Z,6.15
2022-11-29T21:19:37.253Z,6.20
2022-11-29T21:22:27.697Z,6.20
2022-11-29T21:25:32.677Z,6.15
2022-11-29T21:28:00.488Z,6.09
2022-11-29T21:30:27.324Z,6.05
2022-11-29T21:32:54.208Z,6.05
2022-11-29T21:35:20.764Z,5.99
2022-11-29T21:37:47.642Z,5.99
2022-11-29T21:40:15.101Z,5.94
2022-11-29T21:42:41.871Z,5.91
2022-11-29T21:45:14.934Z,5.88
2022-11-29T21:47:43.190Z,5.84
2022-11-29T21:50:10.752Z,5.79
2022-11-29T21:52:37.382Z,5.70
2022-11-29T21:55:04.254Z,5.74
2022-11-29T21:57:30.852Z,5.71
2022-11-29T21:59:57.443Z,5.70
2022-11-29T22:02:24.132Z,5.67
2022-11-29T22:04:50.748Z,5.71
2022-11-29T22:07:17.506Z,5.73
2022-11-29T22:09:44.076Z,5.78
2022-11-29T22:12:32.559Z,5.79
2022-11-29T22:14:57.333Z,5.76
2022-11-29T22:17:23.885Z,5.80
2022-11-29T22:19:50.468Z,5.84
2022-11-29T22:22:17.322Z,5.90
2022-11-29T22:24:44.184Z,5.91
2022-11-29T22:27:12.310Z,5.90
2022-11-29T22:29:39.012Z,5.84
2022-11-29T22:32:06.183Z,5.83
2022-11-29T22:34:32.904Z,5.81
2022-11-29T22:36:59.702Z,5.76
2022-11-29T22:39:26.344Z,5.70
2022-11-29T22:41:54.998Z,5.60
2022-11-29T22:44:23.570Z,5.40
2022-11-29T22:46:51.025Z,5.31
2022-11-29T22:49:17.718Z,5.33
2022-11-29T22:51:44.449Z,5.30
2022-11-29T22:54:11.732Z,5.29
2022-11-29T22:56:40.339Z,5.24
2022-11-29T22:59:07.271Z,5.26
2022-11-29T23:01:35.676Z,5.36
2022-11-29T23:04:04.845Z,5.40
2022-11-29T23:06:42.667Z,5.44
2022-11-29T23:09:22.025Z,5.38
2022-11-29T23:11:53.950Z,5.41
2022-11-29T23:14:21.992Z,5.41
2022-11-29T23:16:48.793Z,5.40
2022-11-29T23:19:16.178Z,5.47
2022-11-29T23:21:45.401Z,5.48
2022-11-29T23:24:12.828Z,5.43
2022-11-29T23:26:42.468Z,5.41
2022-11-29T23:29:12.072Z,5.43
2022-11-29T23:31:39.404Z,5.41
2022-11-29T23:34:06.224Z,5.43
2022-11-29T23:36:32.938Z,5.41
2022-11-29T23:38:59.519Z,5.40
2022-11-29T23:41:26.088Z,5.43
2022-11-29T23:43:52.648Z,5.49
2022-11-29T23:46:22.173Z,5.49
2022-11-29T23:48:48.812Z,5.52
2022-11-29T23:51:16.297Z,5.34
2022-11-29T23:53:43.462Z,5.33
2022-11-29T23:56:12.480Z,5.34
2022-11-29T23:58:39.264Z,5.37
